createdAt,value
2023-01-13T00:00:32.702Z,25.85
2023-01-13T00:02:59.041Z,28.20
2023-01-13T00:05:26.612Z,29.48
2023-01-13T00:07:52.933Z,30.25
2023-01-13T00:10:19.311Z,32.13
2023-01-13T00:12:45.683Z,33.95
2023-01-13T00:15:13.206Z,26.75
2023-01-13T00:17:39.521Z,28.65
2023-01-13T00:20:06.147Z,27.85
2023-01-13T00:22:33.357Z,34.60
2023-01-13T00:25:01.388Z,34.33
2023-01-13T00:27:28.100Z,32.80
2023-01-13T00:29:54.401Z,34.33
2023-01-13T00:32:20.742Z,20.85
2023-01-13T00:34:47.106Z,27.42
2023-01-13T00:37:14.594Z,23.63
2023-01-13T00:39:41.352Z,29.80
2023-01-13T00:42:26.553Z,30.38
2023-01-13T00:44:53.039Z,27.58
2023-01-13T00:47:19.323Z,31.63
2023-01-13T00:49:45.605Z,38.33
2023-01-13T00:52:12.110Z,25.40
2023-01-13T00:54:38.478Z,24.55
2023-01-13T00:57:04.847Z,29.35
2023-01-13T00:59:31.201Z,36.13
2023-01-13T01:01:57.619Z,31.05
2023-01-13T01:04:24.003Z,36.50
2023-01-13T01:06:50.726Z,35.17
2023-01-13T01:09:17.281Z,33.38
2023-01-13T01:11:44.156Z,32.58
2023-01-13T01:14:11.636Z,31.10
2023-01-13T01:16:38.635Z,30.55
2023-01-13T01:19:05.303Z,36.88
2023-01-13T01:21:32.192Z,36.83
2023-01-13T01:23:59.759Z,39.17
2023-01-13T01:26:26.575Z,40.97
2023-01-13T01:28:53.289Z,35.25
2023-01-13T01:31:24.661Z,31.55
2023-01-13T01:33:51.424Z,38.70
2023-01-13T01:36:18.615Z,37.47
2023-01-13T01:38:45.331Z,35.80
2023-01-13T01:41:16.102Z,32.35
2023-01-13T01:44:02.253Z,30.95
2023-01-13T01:46:30.539Z,31.17
2023-01-13T01:48:59.998Z,32.67
2023-01-13T01:51:27.262Z,34.15
2023-01-13T01:53:55.409Z,37.40
2023-01-13T01:56:21.798Z,33.47
2023-01-13T01:58:50.975Z,34.33
2023-01-13T02:01:17.884Z,28.13
2023-01-13T02:03:46.802Z,26.20
2023-01-13T02:06:13.767Z,35.47
2023-01-13T02:08:40.267Z,29.27
2023-01-13T02:11:26.996Z,26.30
2023-01-13T02:13:53.421Z,28.27
2023-01-13T02:16:22.628Z,27.73
2023-01-13T02:18:54.958Z,32.65
2023-01-13T02:21:21.224Z,38.00
2023-01-13T02:24:24.515Z,32.08
2023-01-13T02:27:09.598Z,34.25
2023-01-13T02:29:54.654Z,41.83
2023-01-13T02:32:28.498Z,25.88
2023-01-13T02:35:06.745Z,36.38
2023-01-13T02:37:35.286Z,41.63
2023-01-13T02:40:03.264Z,32.25
2023-01-13T02:42:50.673Z,41.33
2023-01-13T02:45:23.935Z,44.53
2023-01-13T02:47:51.098Z,33.00
2023-01-13T02:50:19.253Z,35.42
2023-01-13T02:52:47.498Z,31.75
2023-01-13T02:55:17.100Z,34.70
2023-01-13T02:57:44.176Z,34.30
2023-01-13T03:00:12.488Z,43.78
2023-01-13T03:02:39.150Z,42.05
2023-01-13T03:05:05.809Z,25.38
2023-01-13T03:07:53.276Z,35.00
2023-01-13T03:10:25.726Z,33.65
2023-01-13T03:13:14.755Z,27.05
2023-01-13T03:16:00.083Z,33.90
2023-01-13T03:18:45.013Z,33.95
2023-01-13T03:21:14.352Z,33.63
2023-01-13T03:23:51.573Z,27.52
2023-01-13T03:26:23.744Z,28.77
2023-01-13T03:28:54.027Z,28.17
2023-01-13T03:31:24.452Z,31.83
2023-01-13T03:33:57.115Z,37.20
2023-01-13T03:36:25.910Z,30.30
2023-01-13T03:38:57.452Z,23.58
2023-01-13T03:41:37.783Z,27.45
2023-01-13T03:44:24.374Z,25.98
2023-01-13T03:47:00.947Z,33.88
2023-01-13T03:49:31.680Z,31.50
2023-01-13T03:52:02.458Z,23.95
2023-01-13T03:54:30.890Z,28.80
2023-01-13T03:57:00.153Z,28.52
2023-01-13T03:59:28.804Z,26.95
2023-01-13T04:02:04.286Z,17.25
2023-01-13T04:04:41.768Z,23.08
2023-01-13T04:07:16.943Z,20.13
2023-01-13T04:10:01.781Z,29.70
2023-01-13T04:12:49.247Z,23.02
2023-01-13T04:15:16.972Z,24.23
2023-01-13T04:17:43.390Z,15.60
2023-01-13T04:20:10.036Z,15.60
2023-01-13T04:22:36.428Z,19.05
2023-01-13T04:25:02.857Z,18.23
2023-01-13T04:27:29.160Z,19.48
2023-01-13T04:29:55.459Z,18.52
2023-01-13T04:32:21.775Z,19.38
2023-01-13T04:34:48.165Z,15.13
2023-01-13T04:37:14.496Z,14.63
2023-01-13T04:39:40.837Z,12.38
2023-01-13T04:42:07.267Z,16.83
2023-01-13T04:44:35.582Z,15.30
2023-01-13T04:47:02.591Z,15.75
2023-01-13T04:49:29.124Z,27.27
2023-01-13T04:51:55.500Z,17.88
2023-01-13T04:54:21.942Z,5.80
2023-01-13T04:56:48.412Z,11.45
2023-01-13T04:59:14.792Z,12.80
2023-01-13T05:01:41.555Z,10.32
2023-01-13T05:04:08.391Z,9.20
2023-01-13T05:06:34.802Z,11.30
2023-01-13T05:09:01.173Z,14.05
2023-01-13T05:11:46.019Z,11.30
2023-01-13T05:14:30.780Z,11.63
2023-01-13T05:17:03.381Z,9.98
2023-01-13T05:19:33.818Z,19.35
2023-01-13T05:22:20.063Z,11.88
2023-01-13T05:25:04.852Z,17.40
2023-01-13T05:27:31.725Z,9.50
2023-01-13T05:29:58.218Z,16.95
2023-01-13T05:32:24.588Z,14.40
2023-01-13T05:34:51.135Z,12.27
2023-01-13T05:37:17.590Z,17.13
2023-01-13T05:40:02.769Z,10.98
2023-01-13T05:42:47.863Z,13.50
2023-01-13T05:45:14.443Z,17.98
2023-01-13T05:47:40.783Z,20.30
2023-01-13T05:50:07.598Z,13.63
2023-01-13T05:52:34.027Z,17.83
2023-01-13T05:55:00.567Z,16.88
2023-01-13T05:57:26.966Z,17.75
2023-01-13T05:59:53.277Z,12.57
2023-01-13T06:02:19.682Z,12.80
2023-01-13T06:04:46.104Z,20.27
2023-01-13T06:07:12.551Z,15.40
2023-01-13T06:09:38.953Z,12.40
2023-01-13T06:12:05.423Z,18.65
2023-01-13T06:14:40.594Z,10.85
2023-01-13T06:17:08.089Z,15.32
2023-01-13T06:19:34.428Z,14.75
2023-01-13T06:22:03.671Z,12.82
2023-01-13T06:24:30.046Z,15.27
2023-01-13T06:26:56.701Z,19.30
2023-01-13T06:29:23.003Z,13.38
2023-01-13T06:31:49.411Z,18.05
2023-01-13T06:34:15.867Z,16.02
2023-01-13T06:36:44.920Z,18.55
2023-01-13T06:39:13.842Z,24.05
2023-01-13T06:41:59.029Z,19.48
2023-01-13T06:44:25.476Z,22.23
2023-01-13T06:46:52.276Z,18.20
2023-01-13T06:49:21.414Z,16.02
2023-01-13T06:51:48.640Z,15.02
2023-01-13T06:54:15.021Z,18.67
2023-01-13T06:56:41.557Z,24.35
2023-01-13T06:59:07.875Z,17.35
2023-01-13T07:01:34.659Z,19.92
2023-01-13T07:04:02.453Z,23.40
2023-01-13T07:06:28.901Z,20.60
2023-01-13T07:08:55.264Z,18.23
2023-01-13T07:11:21.592Z,24.02
2023-01-13T07:14:06.358Z,22.05
2023-01-13T07:16:32.880Z,18.92
2023-01-13T07:18:59.245Z,18.27
2023-01-13T07:21:25.659Z,25.60
2023-01-13T07:23:51.994Z,17.38
2023-01-13T07:26:18.575Z,21.33
2023-01-13T07:28:46.160Z,23.20
2023-01-13T07:31:20.133Z,25.02
2023-01-13T07:33:46.732Z,24.70
2023-01-13T07:36:14.011Z,17.50
2023-01-13T07:38:40.637Z,22.80
2023-01-13T07:41:25.664Z,17.95
2023-01-13T07:43:52.355Z,25.10
2023-01-13T07:46:19.079Z,22.02
2023-01-13T07:48:46.641Z,21.70
2023-01-13T07:51:12.988Z,19.35
2023-01-13T07:53:39.399Z,17.48
2023-01-13T07:56:06.583Z,19.83
2023-01-13T07:58:33.591Z,21.50
2023-01-13T08:01:00.223Z,21.30
2023-01-13T08:03:27.060Z,19.10
2023-01-13T08:05:53.470Z,18.88
2023-01-13T08:08:19.834Z,23.98
2023-01-13T08:10:46.198Z,14.23
2023-01-13T08:13:17.401Z,18.23
2023-01-13T08:18:10.292Z,17.40
2023-01-13T08:20:36.645Z,19.80
2023-01-13T08:23:04.182Z,24.00
2023-01-13T08:25:32.025Z,25.77
2023-01-13T08:28:00.504Z,27.55
2023-01-13T08:30:27.537Z,23.50
2023-01-13T08:32:54.324Z,19.15
2023-01-13T08:35:20.957Z,29.90
2023-01-13T08:37:47.786Z,18.52
2023-01-13T08:40:15.339Z,21.67
2023-01-13T08:42:41.699Z,26.88
2023-01-13T08:45:09.112Z,18.75
2023-01-13T08:47:35.583Z,20.05
2023-01-13T08:50:02.340Z,16.67
2023-01-13T08:52:29.049Z,27.08
2023-01-13T08:54:55.449Z,22.00
2023-01-13T08:57:21.896Z,28.70
2023-01-13T08:59:48.291Z,26.98
2023-01-13T09:02:19.411Z,19.02
2023-01-13T09:07:12.709Z,14.10
2023-01-13T09:09:39.424Z,26.85
2023-01-13T09:12:24.307Z,22.70
2023-01-13T09:14:51.172Z,21.27
2023-01-13T09:17:18.411Z,27.08
2023-01-13T09:19:44.811Z,27.13
2023-01-13T09:22:15.074Z,18.30
2023-01-13T09:24:41.570Z,17.00
2023-01-13T09:27:08.996Z,23.55
2023-01-13T09:29:36.448Z,17.45
2023-01-13T09:32:02.953Z,21.80
2023-01-13T09:34:48.323Z,25.77
2023-01-13T09:37:14.843Z,25.33
2023-01-13T09:39:41.325Z,23.63
2023-01-13T09:42:46.515Z,22.50
2023-01-13T09:45:15.752Z,18.73
2023-01-13T09:47:57.573Z,22.98
2023-01-13T09:50:28.859Z,17.45
2023-01-13T09:52:55.615Z,20.33
2023-01-13T09:55:30.036Z,16.77
2023-01-13T09:57:56.446Z,24.05
2023-01-13T10:00:24.463Z,18.90
2023-01-13T10:02:50.825Z,22.75
2023-01-13T10:05:17.329Z,20.35
2023-01-13T10:07:49.005Z,26.45
2023-01-13T10:10:20.058Z,25.42
2023-01-13T10:13:06.909Z,28.10
2023-01-13T10:15:33.416Z,19.65
2023-01-13T10:18:18.300Z,24.10
2023-01-13T10:21:04.912Z,33.63
2023-01-13T10:23:46.627Z,29.42
2023-01-13T10:26:25.277Z,26.45
2023-01-13T10:28:53.160Z,20.55
2023-01-13T10:31:20.547Z,28.20
2023-01-13T10:33:47.016Z,18.35
2023-01-13T10:36:14.987Z,24.25
2023-01-13T10:38:42.953Z,28.55
2023-01-13T10:41:12.031Z,20.77
2023-01-13T10:43:38.393Z,20.58
2023-01-13T10:46:07.037Z,21.30
2023-01-13T10:48:35.053Z,17.25
2023-01-13T10:51:09.973Z,17.13
2023-01-13T10:53:44.321Z,12.15
2023-01-13T10:56:15.747Z,11.40
2023-01-13T10:58:42.243Z,18.15
2023-01-13T11:01:14.672Z,18.20
2023-01-13T11:03:43.062Z,16.00
2023-01-13T11:06:10.455Z,20.48
2023-01-13T11:08:45.049Z,17.55
2023-01-13T11:11:23.443Z,15.90
2023-01-13T11:14:09.624Z,17.73
2023-01-13T11:16:42.634Z,16.63
2023-01-13T11:19:15.838Z,15.27
2023-01-13T11:21:51.839Z,23.33
2023-01-13T11:24:31.455Z,15.82
2023-01-13T11:26:57.972Z,13.45
2023-01-13T11:29:27.422Z,17.50
2023-01-13T11:31:55.670Z,18.27
2023-01-13T11:34:36.043Z,13.05
2023-01-13T11:37:08.111Z,12.80
2023-01-13T11:39:54.173Z,16.45
2023-01-13T11:42:39.232Z,14.45
2023-01-13T11:45:16.905Z,16.73
2023-01-13T11:47:44.424Z,16.23
2023-01-13T11:50:18.900Z,13.90
2023-01-13T11:53:04.813Z,15.35
2023-01-13T11:55:40.596Z,12.70
2023-01-13T11:58:09.921Z,12.48
2023-01-13T12:00:38.992Z,19.33
2023-01-13T12:03:16.010Z,10.85
2023-01-13T12:05:44.576Z,18.65
2023-01-13T12:08:18.483Z,18.60
2023-01-13T12:11:00.162Z,16.27
2023-01-13T12:13:26.525Z,15.90
2023-01-13T12:16:08.082Z,14.57
2023-01-13T12:18:40.264Z,15.73
2023-01-13T12:21:06.666Z,17.73
2023-01-13T12:23:43.477Z,14.40
2023-01-13T12:26:14.080Z,14.30
2023-01-13T12:28:49.208Z,14.73
2023-01-13T12:31:19.060Z,10.48
2023-01-13T12:33:51.332Z,14.02
2023-01-13T12:36:26.919Z,13.27
2023-01-13T12:39:13.607Z,10.90
2023-01-13T12:42:15.172Z,22.67
2023-01-13T12:47:27.740Z,10.85
2023-01-13T12:50:14.063Z,9.57
2023-01-13T12:52:44.022Z,13.90
2023-01-13T12:55:13.440Z,16.23
2023-01-13T12:57:40.244Z,12.25
2023-01-13T13:00:06.695Z,14.15
2023-01-13T13:02:33.135Z,13.23
2023-01-13T13:05:12.421Z,14.05
2023-01-13T13:07:41.521Z,13.13
2023-01-13T13:10:16.050Z,18.05
2023-01-13T13:13:00.906Z,8.98
2023-01-13T13:15:29.502Z,10.43
2023-01-13T13:17:58.785Z,9.68
2023-01-13T13:20:44.335Z,14.95
2023-01-13T13:23:29.535Z,9.73
2023-01-13T13:25:59.110Z,15.45
2023-01-13T13:28:25.856Z,16.25
2023-01-13T13:31:04.175Z,15.32
2023-01-13T13:33:56.217Z,14.63
2023-01-13T13:36:28.662Z,16.40
2023-01-13T13:39:32.338Z,15.98
2023-01-13T13:42:28.278Z,10.25
2023-01-13T13:45:13.882Z,18.10
2023-01-13T13:47:40.278Z,11.43
2023-01-13T13:50:15.019Z,13.45
2023-01-13T13:52:43.160Z,14.77
2023-01-13T13:55:10.004Z,8.88
2023-01-13T13:57:39.562Z,9.25
2023-01-13T14:00:08.060Z,9.85
2023-01-13T14:02:38.520Z,8.35
2023-01-13T14:05:28.721Z,11.23
2023-01-13T14:08:02.729Z,10.70
2023-01-13T14:10:32.830Z,14.18
2023-01-13T14:13:00.204Z,19.90
2023-01-13T14:15:34.422Z,12.90
2023-01-13T14:18:02.827Z,9.55
2023-01-13T14:20:29.983Z,16.00
2023-01-13T14:23:01.529Z,12.05
2023-01-13T14:27:55.372Z,16.40
2023-01-13T14:30:27.434Z,11.55
2023-01-13T14:32:54.435Z,13.95
2023-01-13T14:35:20.871Z,17.80
2023-01-13T14:37:48.991Z,12.75
2023-01-13T14:40:35.716Z,16.73
2023-01-13T14:43:02.677Z,15.88
2023-01-13T14:45:30.458Z,12.75
2023-01-13T14:48:00.762Z,18.45
2023-01-13T14:50:31.579Z,14.33
2023-01-13T14:53:00.973Z,15.05
2023-01-13T14:55:29.677Z,13.75
2023-01-13T14:58:14.649Z,13.10
2023-01-13T15:00:41.192Z,12.10
2023-01-13T15:03:07.995Z,16.70
2023-01-13T15:05:35.565Z,12.02
2023-01-13T15:08:09.752Z,12.98
2023-01-13T15:10:44.207Z,21.77
2023-01-13T15:13:22.747Z,11.30
2023-01-13T15:15:50.554Z,14.43
2023-01-13T15:18:19.645Z,18.83
2023-01-13T15:20:46.091Z,13.05
2023-01-13T15:23:15.233Z,11.90
2023-01-13T15:25:42.770Z,12.90
2023-01-13T15:28:17.024Z,14.30
2023-01-13T15:30:43.452Z,19.77
2023-01-13T15:33:11.634Z,13.07
2023-01-13T15:35:39.268Z,20.27
2023-01-13T15:38:10.534Z,9.00
2023-01-13T15:40:37.063Z,14.70
2023-01-13T15:43:22.239Z,13.48
2023-01-13T15:46:07.364Z,9.90
2023-01-13T15:48:34.215Z,13.57
2023-01-13T15:51:02.485Z,13.55
2023-01-13T15:53:29.996Z,11.82
2023-01-13T15:55:57.821Z,14.50
2023-01-13T15:58:27.063Z,11.88
2023-01-13T16:00:54.624Z,19.37
2023-01-13T16:03:21.067Z,14.57
2023-01-13T16:05:48.156Z,14.98
2023-01-13T16:08:15.545Z,13.80
2023-01-13T16:10:42.271Z,12.45
2023-01-13T16:13:08.630Z,19.75
2023-01-13T16:15:35.098Z,17.80
2023-01-13T16:18:03.338Z,17.08
2023-01-13T16:20:30.051Z,10.68
2023-01-13T16:22:56.445Z,21.05
2023-01-13T16:25:24.713Z,21.02
2023-01-13T16:27:51.876Z,10.68
2023-01-13T16:30:18.196Z,10.57
2023-01-13T16:32:44.555Z,17.77
2023-01-13T16:35:11.027Z,15.57
2023-01-13T16:37:37.559Z,14.63
2023-01-13T16:40:04.253Z,11.32
2023-01-13T16:42:30.743Z,18.85
2023-01-13T16:44:58.561Z,22.00
2023-01-13T16:47:25.155Z,13.55
2023-01-13T16:49:51.550Z,14.25
2023-01-13T16:52:17.971Z,21.42
2023-01-13T16:54:44.372Z,15.82
2023-01-13T16:57:12.550Z,11.60
2023-01-13T16:59:38.936Z,11.30
2023-01-13T17:02:05.366Z,13.82
2023-01-13T17:04:31.678Z,16.60
2023-01-13T17:07:00.364Z,12.30
2023-01-13T17:09:27.780Z,11.70
2023-01-13T17:11:54.591Z,11.68
2023-01-13T17:14:23.314Z,6.90
2023-01-13T17:16:50.784Z,10.27
2023-01-13T17:19:18.363Z,10.43
2023-01-13T17:21:46.899Z,6.75
2023-01-13T17:24:14.027Z,11.68
2023-01-13T17:26:47.000Z,12.55
2023-01-13T17:29:15.006Z,7.80
2023-01-13T17:31:41.683Z,4.70
2023-01-13T17:34:08.091Z,6.18
2023-01-13T17:36:34.569Z,2.53
2023-01-13T17:39:00.923Z,3.42
2023-01-13T17:41:27.361Z,2.67
2023-01-13T17:43:53.789Z,3.53
2023-01-13T17:46:20.310Z,3.40
2023-01-13T17:48:47.438Z,5.55
2023-01-13T17:51:15.269Z,4.72
2023-01-13T17:53:42.969Z,9.10
2023-01-13T17:56:12.563Z,7.82
2023-01-13T17:58:39.324Z,8.25
2023-01-13T18:01:16.418Z,10.13
2023-01-13T18:03:42.937Z,8.48
2023-01-13T18:06:14.439Z,9.48
2023-01-13T18:08:40.789Z,7.15
2023-01-13T18:11:07.256Z,11.15
2023-01-13T18:13:37.471Z,10.73
2023-01-13T18:16:14.143Z,10.60
2023-01-13T18:18:41.589Z,9.00
2023-01-13T18:21:27.803Z,15.40
2023-01-13T18:24:12.804Z,8.77
2023-01-13T18:26:57.762Z,14.18
2023-01-13T18:29:24.929Z,10.18
2023-01-13T18:31:52.437Z,12.05
2023-01-13T18:34:19.390Z,6.25
2023-01-13T18:36:45.788Z,5.82
2023-01-13T18:39:12.107Z,9.45
2023-01-13T18:41:57.342Z,7.32
2023-01-13T18:44:23.763Z,7.25
2023-01-13T18:46:50.600Z,10.90
2023-01-13T18:49:17.149Z,7.40
2023-01-13T18:51:43.822Z,11.40
2023-01-13T18:54:10.430Z,8.18
2023-01-13T18:56:36.839Z,7.50
2023-01-13T18:59:03.619Z,6.03
2023-01-13T19:01:30.255Z,14.75
2023-01-13T19:04:02.477Z,10.77
2023-01-13T19:06:33.656Z,8.98
2023-01-13T19:09:01.765Z,8.93
2023-01-13T19:11:30.504Z,6.80
2023-01-13T19:13:57.319Z,11.20
2023-01-13T19:16:23.806Z,9.55
2023-01-13T19:18:50.196Z,11.95
2023-01-13T19:21:16.668Z,11.50
2023-01-13T19:23:43.047Z,10.35
2023-01-13T19:26:10.306Z,12.93
2023-01-13T19:28:39.015Z,15.25
2023-01-13T19:31:06.755Z,14.40
2023-01-13T19:33:34.371Z,11.90
2023-01-13T19:36:01.136Z,11.57
2023-01-13T19:38:28.108Z,10.68
2023-01-13T19:40:55.544Z,12.90
2023-01-13T19:43:40.740Z,14.75
2023-01-13T19:46:07.247Z,9.68
2023-01-13T19:48:33.771Z,13.95
2023-01-13T19:51:00.762Z,10.95
2023-01-13T19:53:27.165Z,9.90
2023-01-13T19:55:54.196Z,14.32
2023-01-13T19:58:23.022Z,13.68
2023-01-13T20:00:50.142Z,6.63
2023-01-13T20:03:17.510Z,10.50
2023-01-13T20:05:43.902Z,7.78
2023-01-13T20:08:10.803Z,6.85
2023-01-13T20:10:37.404Z,13.48
2023-01-13T20:13:04.405Z,11.57
2023-01-13T20:15:31.359Z,12.02
2023-01-13T20:17:58.080Z,10.55
2023-01-13T20:20:26.673Z,8.48
2023-01-13T20:22:53.152Z,11.40
2023-01-13T20:25:19.658Z,9.05
2023-01-13T20:27:46.986Z,13.80
2023-01-13T20:30:14.398Z,10.43
2023-01-13T20:32:41.585Z,11.68
2023-01-13T20:35:08.435Z,10.07
2023-01-13T20:37:36.524Z,14.15
2023-01-13T20:40:04.957Z,11.52
2023-01-13T20:42:46.503Z,11.48
2023-01-13T20:45:17.016Z,9.60
2023-01-13T20:47:44.339Z,9.40
2023-01-13T20:50:11.179Z,13.80
2023-01-13T20:52:37.702Z,11.90
2023-01-13T20:55:05.754Z,11.52
2023-01-13T20:57:32.139Z,11.48
2023-01-13T20:59:58.517Z,12.45
2023-01-13T21:02:25.603Z,11.60
2023-01-13T21:04:52.190Z,14.27
2023-01-13T21:07:18.585Z,13.63
2023-01-13T21:09:45.395Z,12.48
2023-01-13T21:12:33.614Z,9.50
2023-01-13T21:15:20.594Z,10.90
2023-01-13T21:18:06.274Z,16.63
2023-01-13T21:20:34.300Z,14.20
2023-01-13T21:23:01.008Z,14.05
2023-01-13T21:25:27.867Z,26.05
2023-01-13T21:27:54.870Z,15.05
2023-01-13T21:30:21.246Z,19.85
2023-01-13T21:32:47.656Z,11.82
2023-01-13T21:35:14.252Z,9.75
2023-01-13T21:37:43.629Z,24.15
2023-01-13T21:40:11.931Z,11.45
2023-01-13T21:42:56.981Z,9.93
2023-01-13T21:45:41.884Z,17.30
2023-01-13T21:48:09.267Z,10.05
2023-01-13T21:50:36.257Z,13.57
2023-01-13T21:53:02.589Z,10.18
2023-01-13T21:55:29.404Z,10.80
2023-01-13T21:57:57.290Z,14.85
2023-01-13T22:00:25.260Z,17.88
2023-01-13T22:02:52.100Z,10.00
2023-01-13T22:05:19.849Z,18.35
2023-01-13T22:07:46.321Z,17.05
2023-01-13T22:10:16.994Z,16.92
2023-01-13T22:12:43.613Z,12.43
2023-01-13T22:15:11.274Z,11.50
2023-01-13T22:17:37.570Z,16.67
2023-01-13T22:20:04.307Z,12.27
2023-01-13T22:22:36.442Z,14.00
2023-01-13T22:25:05.079Z,18.27
2023-01-13T22:27:31.662Z,6.53
2023-01-13T22:29:58.965Z,12.38
2023-01-13T22:32:25.420Z,14.23
2023-01-13T22:34:51.787Z,12.48
2023-01-13T22:37:18.074Z,10.02
2023-01-13T22:39:44.421Z,11.25
2023-01-13T22:42:11.612Z,10.77
2023-01-13T22:44:38.204Z,13.88
2023-01-13T22:47:04.710Z,12.43
2023-01-13T22:49:31.248Z,12.00
2023-01-13T22:51:57.761Z,15.63
2023-01-13T22:54:24.148Z,15.38
2023-01-13T22:56:50.597Z,13.10
2023-01-13T22:59:17.015Z,12.57
2023-01-13T23:01:43.403Z,15.70
2023-01-13T23:04:11.742Z,16.05
2023-01-13T23:06:38.276Z,13.20
2023-01-13T23:09:04.581Z,13.40
2023-01-13T23:11:31.082Z,23.67
2023-01-13T23:13:59.190Z,14.63
2023-01-13T23:16:26.384Z,10.10
2023-01-13T23:18:52.752Z,21.70
2023-01-13T23:21:21.307Z,15.20
2023-01-13T23:23:47.998Z,14.32
2023-01-13T23:26:14.653Z,14.68
2023-01-13T23:28:40.981Z,10.43
2023-01-13T23:31:07.952Z,13.90
2023-01-13T23:33:34.799Z,11.90
2023-01-13T23:36:02.423Z,19.40
2023-01-13T23:38:29.210Z,16.83
2023-01-13T23:40:55.780Z,13.68
2023-01-13T23:43:22.218Z,13.80
2023-01-13T23:45:48.959Z,13.98
2023-01-13T23:48:15.404Z,14.98
2023-01-13T23:50:42.015Z,14.50
2023-01-13T23:53:08.464Z,12.40
2023-01-13T23:55:35.094Z,15.65
2023-01-13T23:58:01.401Z,15.45
